x

La Perouse Bank (46206) Wave Buoy

11:00 - Fri 18th Aug 2017 All times are PDT. -7 hours from GMT.

  • Sig Wave height 6.2ft
  • Peak Period 5s
  • Wind
    22mph, 27mph gusts
  • Sea Temp 56°f
  • Ar Temp 59°f
  • Sea Pressure 1022mb
  • La Perouse Bank
  • La Perouse Bank

More Historic Weather Station data

Upgrade to MSW Pro to gain access to the past 30 days of data for over 8000 Wavebouys and Weather Stations around the globe.

Join

Comparision Forecast

View Surf forecast
   
Sex 08/18 11:00 6ft 5s 22 27 mph 1022mb 56f 59f
10:00 6.5ft 6s 22 27 mph 1022mb 57f 59f
9:00 7ft 8s 22 29 mph 1021.9mb 58f 59f
8:00 6.5ft 8s 22 29 mph 1021.7mb 58f 59f
7:00 6ft 9s 22 27 mph 1022mb 59f 59f
6:00 6ft 8s 22 27 mph 1022.1mb 58f 60f
5:00 6ft 10s 20 22 mph 1022.4mb 58f 60f
4:00 5ft 9s 16 20 mph 1022.7mb 58f 60f
3:00 5.5ft 8s 13 16 mph 1022.7mb 58f 60f
2:00 5ft 9s 11 13 mph 1022.6mb 58f 60f
1:00 5.5ft 10s 11 16 mph 1022.6mb 58f 60f
12:00 5.5ft 9s 9 9 mph 1022.2mb 58f 60f
11:00 5.5ft 9s 9 9 mph 1021.9mb 58f 59f
10:00 5.5ft 10s 9 9 mph 1021.5mb 58f 59f
9:00 5.5ft 9s 9 11 mph 1021.4mb 58f 59f
8:00 5ft 10s 9 9 mph 1021.3mb 58f 59f
7:00 5ft 10s 7 9 mph 1021.2mb 58f 59f
6:00 4.5ft 11s 4 7 mph 1021.3mb 58f 59f
5:00 5ft 11s 7 9 mph 1021.4mb 58f 59f
4:00 4.5ft 11s 2 4 mph 1021.6mb 58f 59f
3:00 5ft 11s 2 4 mph 1021.4mb 58f 59f
2:00 5ft 11s 4 7 mph 1021.6mb 58f 59f
1:00 5ft 10s 9 11 mph 1022.1mb 59f 59f
12:00 5ft 12s 7 9 mph 1022.2mb 59f 59f
Qui 08/17 11:00 5ft 11s 9 11 mph 1022.2mb 59f 59f
10:00 5ft 11s 7 9 mph 1022.6mb 59f 60f
9:00 6ft 12s 7 9 mph 1022.9mb 59f 60f
8:00 6.5ft 10s 7 9 mph 1022.7mb 59f 60f
7:00 6ft 11s 9 11 mph 1022.9mb 60f 60f
6:00 6ft 10s 9 11 mph 1023mb 60f 60f
5:00 6ft 11s 7 9 mph 1023.4mb 60f 60f
4:00 6ft 10s 7 9 mph 1023.8mb 59f 60f
3:00 5.5ft 11s 7 9 mph 1024mb 60f 60f
2:00 6ft 11s 7 9 mph 1024.1mb 59f 60f
1:00 6ft 12s 4 7 mph 1023.8mb 59f 60f
12:00 5.5ft 11s 7 9 mph 1023.6mb 58f 60f
11:00 6ft 12s 7 9 mph 1023.1mb 57f 60f
10:00 6ft 12s 4 9 mph 1022.9mb 57f 59f
9:00 7ft 12s 4 7 mph 1022.5mb 57f 58f
8:00 7ft 12s 7 9 mph 1022.4mb 56f 59f
7:00 7ft 12s 7 9 mph 1022mb 57f 58f
6:00 7ft 12s 9 11 mph 1021.6mb 56f 58f
5:00 7ft 11s 11 13 mph 1021.2mb 57f 58f
4:00 7ft 11s 11 16 mph 1021.1mb 58f 58f
3:00 6ft 10s 13 16 mph 1021.2mb 58f 58f
2:00 6ft 9s 11 13 mph 1021.1mb 58f 58f
1:00 5.5ft 11s 16 18 mph 1021.2mb 58f 58f
12:00 5.5ft 11s 13 16 mph 1020.9mb 58f 58f
Qua 08/16 11:00 5ft 11s 13 18 mph 1020.8mb 58f 59f
10:00 5ft 9s 13 18 mph 1020.6mb 58f 59f
9:00 5ft 9s 13 16 mph 1020.6mb 58f 59f
8:00 5.5ft 10s 13 16 mph 1020.3mb 58f 59f
7:00 5ft 10s 13 16 mph 1020.4mb 58f 60f
6:00 5ft 10s 13 18 mph 1020.3mb 58f 60f
5:00 5ft 11s 13 18 mph 1020.5mb 58f 59f
4:00 5ft 9s 13 13 mph 1020.6mb 58f 59f
3:00 5ft 9s 13 16 mph 1020.6mb 58f 59f
2:00 5ft 10s 11 13 mph 1020.5mb 59f 59f
1:00 4.5ft 10s 7 7 mph 1020.4mb 58f 59f
12:00 5ft 10s 4 7 mph 1020.1mb 58f 59f
11:00 5ft 10s 7 9 mph 1019.7mb 58f 59f
10:00 5ft 10s 2 4 mph 1019.6mb 59f 59f
9:00 5ft 10s 2 4 mph 1019.3mb 58f 58f
8:00 5ft 10s 2 4 mph 1019.1mb 57f 58f
7:00 5.5ft 10s 4 4 mph 1019.1mb 57f 58f
6:00 5ft 11s 7 9 mph 1018.7mb 57f 58f
5:00 6ft 10s 9 13 mph 1018.5mb 58f 58f
4:00 6ft 9s 9 11 mph 1018.3mb 58f 58f
3:00 6ft 10s 9 13 mph 1018.5mb 58f 58f
2:00 6ft 10s 11 13 mph 1018.1mb 58f 59f
1:00 6ft 10s 13 16 mph 1018.2mb 58f 59f
12:00 6ft 10s 16 18 mph 1018mb 58f 59f
Ter 08/15 11:00 5ft 10s 13 16 mph 1017.8mb 58f 59f
10:00 4.5ft 10s 16 18 mph 1017.6mb 58f 59f
9:00 5ft 9s 13 16 mph 1017.4mb 58f 59f
8:00 4.5ft 10s 16 18 mph 1016.9mb 58f 59f
7:00 4ft 10s 13 18 mph 1016.8mb 57f 59f
6:00 4ft 10s 16 18 mph 1017mb 57f 59f
5:00 4ft 7s 16 18 mph 1017mb 58f 59f
4:00 3.5ft 10s 13 16 mph 1017.1mb 58f 59f
3:00 3.5ft 9s 13 18 mph 1017.1mb 58f 58f
2:00 3.5ft 10s 13 18 mph 1017.1mb 58f 58f
1:00 3.5ft 9s 11 13 mph 1017mb 58f 58f
12:00 3.5ft 8s 9 11 mph 1016.8mb 58f 58f
11:00 3.5ft 9s 9 11 mph 1016.5mb 58f 58f
10:00 3.5ft 10s 11 13 mph 1016.3mb 58f 58f
9:00 3.5ft 9s 11 13 mph 1015.9mb 57f 58f
8:00 3.5ft 9s 9 11 mph 1015.1mb 57f 57f